Disclaimer

Please do not use the information listed here in-flight or in-navigation, as they are not provided to us by the airports but are provided by volunteers, so they might be outdated.

Search


Regions


Airport information page

Radio informations:
Tower (TWR) - 119.225 MHz
Ground (GND) - 121.7 MHz
Clearance delivery - 121.975 MHz
Automatic Terminal Information Service (ATIS) - 108.4 MHz
ARR - 118.4 MHz
Approach/Departure (APP/DEP) - 119.05 MHz

Airport informations:
Latitude: 52° 18' 31.01" N
Longitude: 004° 45' 50.00" E
Elevation: -11 feet - -3 meters
Operating hours: 24 hour operations
Operating agency: Civil government, landing fees and diplomatic clearance may be required
Timezone: UTC+1(+2DT) - Last Sunday in March to last Sunday in October
Fuel: Jet A1+, Jet A1 with icing inhibitor.

100/130 MIL Spec, low lead, aviation gasoline (BLUE)

Runway information:
04/22 - 6608 x 148 feet< - >2014 x 45 meters
06/24 - 11483 x 148 feet< - >3500 x 45 meters
09/27 - 11329 x 148 feet< - >3453 x 45 meters
18C/36C - 10826 x 148 feet< - >3300 x 45 meters
18R/36L - 12467 x 198 feet< - >3800 x 60 meters
18L/36R - 11155 x 148 feet< - >3400 x 45 meters

Recent METARs:
EHAM 201355Z 07016KT 050V110 9999 FEW022 OVC026 04/M00 Q1009 NOSIG
EHAM 201425Z 08014KT 050V110 9999 FEW020 OVC026 04/M00 Q1009 NOSIG
EHAM 201455Z 07017KT 040V100 9999 FEW020 OVC022 03/M00 Q1009 NOSIG

Airport on the map: